sensor_id;sensor_type;location;lat;lon;timestamp;temperature;humidity
71514;DHT22;59335;46.652;21.272;2023-06-04T00:01:36;26.06;47.15
71514;DHT22;59335;46.652;21.272;2023-06-04T00:04:39;26.04;47.17
71514;DHT22;59335;46.652;21.272;2023-06-04T00:07:42;26.07;47.13
71514;DHT22;59335;46.652;21.272;2023-06-04T00:10:44;26.07;47.08
71514;DHT22;59335;46.652;21.272;2023-06-04T00:13:47;26.07;47.08
71514;DHT22;59335;46.652;21.272;2023-06-04T00:16:50;26.07;47.11
71514;DHT22;59335;46.652;21.272;2023-06-04T00:19:53;26.03;47.12
71514;DHT22;59335;46.652;21.272;2023-06-04T00:22:56;26.03;47.13
71514;DHT22;59335;46.652;21.272;2023-06-04T00:25:58;26.03;47.16
71514;DHT22;59335;46.652;21.272;2023-06-04T00:29:01;26.03;47.15
71514;DHT22;59335;46.652;21.272;2023-06-04T00:32:04;26.00;47.07
71514;DHT22;59335;46.652;21.272;2023-06-04T00:35:07;26.03;47.09
71514;DHT22;59335;46.652;21.272;2023-06-04T00:38:11;26.01;47.10
71514;DHT22;59335;46.652;21.272;2023-06-04T00:41:14;26.01;47.09
71514;DHT22;59335;46.652;21.272;2023-06-04T00:44:17;26.01;47.09
71514;DHT22;59335;46.652;21.272;2023-06-04T00:47:20;26.03;47.02
71514;DHT22;59335;46.652;21.272;2023-06-04T00:50:24;26.04;47.02
71514;DHT22;59335;46.652;21.272;2023-06-04T00:53:26;26.00;47.04
71514;DHT22;59335;46.652;21.272;2023-06-04T00:56:29;26.00;47.04
71514;DHT22;59335;46.652;21.272;2023-06-04T00:59:33;26.01;47.02
71514;DHT22;59335;46.652;21.272;2023-06-04T01:02:38;26.01;47.03
71514;DHT22;59335;46.652;21.272;2023-06-04T01:05:48;25.99;46.98
71514;DHT22;59335;46.652;21.272;2023-06-04T01:08:55;25.96;47.03
71514;DHT22;59335;46.652;21.272;2023-06-04T01:12:03;25.97;47.01
71514;DHT22;59335;46.652;21.272;2023-06-04T01:15:07;25.99;47.02
71514;DHT22;59335;46.652;21.272;2023-06-04T01:18:15;26.00;46.98
71514;DHT22;59335;46.652;21.272;2023-06-04T01:21:31;26.01;46.92
71514;DHT22;59335;46.652;21.272;2023-06-04T01:24:40;25.97;46.98
71514;DHT22;59335;46.652;21.272;2023-06-04T01:27:44;25.99;46.94
71514;DHT22;59335;46.652;21.272;2023-06-04T01:30:47;25.99;46.94
71514;DHT22;59335;46.652;21.272;2023-06-04T01:33:55;26.00;46.89
71514;DHT22;59335;46.652;21.272;2023-06-04T01:37:00;25.96;46.91
71514;DHT22;59335;46.652;21.272;2023-06-04T01:40:03;25.97;46.93
71514;DHT22;59335;46.652;21.272;2023-06-04T01:43:07;26.01;46.93
71514;DHT22;59335;46.652;21.272;2023-06-04T01:46:10;26.00;46.85
71514;DHT22;59335;46.652;21.272;2023-06-04T01:49:13;25.99;46.88
71514;DHT22;59335;46.652;21.272;2023-06-04T01:52:16;26.03;46.84
71514;DHT22;59335;46.652;21.272;2023-06-04T01:55:18;26.00;46.84
71514;DHT22;59335;46.652;21.272;2023-06-04T01:58:21;26.01;46.80
71514;DHT22;59335;46.652;21.272;2023-06-04T02:01:29;26.01;46.85
71514;DHT22;59335;46.652;21.272;2023-06-04T02:04:32;25.97;46.86
71514;DHT22;59335;46.652;21.272;2023-06-04T02:07:35;25.96;46.87
71514;DHT22;59335;46.652;21.272;2023-06-04T02:10:41;25.97;46.85
71514;DHT22;59335;46.652;21.272;2023-06-04T02:13:43;26.00;46.77
71514;DHT22;59335;46.652;21.272;2023-06-04T02:16:46;25.97;46.81
71514;DHT22;59335;46.652;21.272;2023-06-04T02:19:52;25.97;46.78
71514;DHT22;59335;46.652;21.272;2023-06-04T02:22:55;25.97;46.81
71514;DHT22;59335;46.652;21.272;2023-06-04T02:25:58;25.97;46.80
71514;DHT22;59335;46.652;21.272;2023-06-04T02:29:01;25.97;46.74
71514;DHT22;59335;46.652;21.272;2023-06-04T02:32:04;25.94;46.77
71514;DHT22;59335;46.652;21.272;2023-06-04T02:35:07;25.96;46.74
71514;DHT22;59335;46.652;21.272;2023-06-04T02:38:11;25.93;46.75
71514;DHT22;59335;46.652;21.272;2023-06-04T02:41:14;25.94;46.72
71514;DHT22;59335;46.652;21.272;2023-06-04T02:44:18;25.94;46.74
71514;DHT22;59335;46.652;21.272;2023-06-04T02:47:20;25.94;46.71
71514;DHT22;59335;46.652;21.272;2023-06-04T02:50:23;25.92;46.75
71514;DHT22;59335;46.652;21.272;2023-06-04T02:53:25;25.92;46.75
71514;DHT22;59335;46.652;21.272;2023-06-04T02:56:28;25.93;46.73
71514;DHT22;59335;46.652;21.272;2023-06-04T02:59:31;25.92;46.76
71514;DHT22;59335;46.652;21.272;2023-06-04T03:02:34;25.94;46.69
71514;DHT22;59335;46.652;21.272;2023-06-04T03:05:37;25.93;46.67
71514;DHT22;59335;46.652;21.272;2023-06-04T03:08:42;25.89;46.69
71514;DHT22;59335;46.652;21.272;2023-06-04T03:11:45;25.92;46.61
71514;DHT22;59335;46.652;21.272;2023-06-04T03:14:48;25.90;46.64
71514;DHT22;59335;46.652;21.272;2023-06-04T03:17:52;25.93;46.60
71514;DHT22;59335;46.652;21.272;2023-06-04T03:20:55;25.92;46.58
71514;DHT22;59335;46.652;21.272;2023-06-04T03:23:58;25.92;46.58
71514;DHT22;59335;46.652;21.272;2023-06-04T03:27:03;25.93;46.56
71514;DHT22;59335;46.652;21.272;2023-06-04T03:30:07;25.94;46.47
71514;DHT22;59335;46.652;21.272;2023-06-04T03:33:24;25.92;46.49
71514;DHT22;59335;46.652;21.272;2023-06-04T03:36:27;25.96;46.49
71514;DHT22;59335;46.652;21.272;2023-06-04T03:39:41;25.93;46.51
71514;DHT22;59335;46.652;21.272;2023-06-04T03:42:46;25.94;46.51
71514;DHT22;59335;46.652;21.272;2023-06-04T03:45:56;25.93;46.45
71514;DHT22;59335;46.652;21.272;2023-06-04T03:48:59;25.93;46.46
71514;DHT22;59335;46.652;21.272;2023-06-04T03:52:04;25.96;46.46
71514;DHT22;59335;46.652;21.272;2023-06-04T03:55:07;25.92;46.45
71514;DHT22;59335;46.652;21.272;2023-06-04T03:58:12;25.94;46.42
71514;DHT22;59335;46.652;21.272;2023-06-04T04:01:21;25.93;46.43
71514;DHT22;59335;46.652;21.272;2023-06-04T04:04:27;25.94;46.38
71514;DHT22;59335;46.652;21.272;2023-06-04T04:07:30;25.96;46.39
71514;DHT22;59335;46.652;21.272;2023-06-04T04:10:33;25.94;46.43
71514;DHT22;59335;46.652;21.272;2023-06-04T04:13:38;25.92;46.38
71514;DHT22;59335;46.652;21.272;2023-06-04T04:16:41;25.93;46.35
71514;DHT22;59335;46.652;21.272;2023-06-04T04:19:44;25.90;46.35
71514;DHT22;59335;46.652;21.272;2023-06-04T04:22:46;25.90;46.44
71514;DHT22;59335;46.652;21.272;2023-06-04T04:25:53;25.90;46.47
71514;DHT22;59335;46.652;21.272;2023-06-04T04:28:56;25.92;46.41
71514;DHT22;59335;46.652;21.272;2023-06-04T04:32:03;25.94;46.36
71514;DHT22;59335;46.652;21.272;2023-06-04T04:35:15;25.93;46.33
71514;DHT22;59335;46.652;21.272;2023-06-04T04:38:22;25.93;46.30
71514;DHT22;59335;46.652;21.272;2023-06-04T04:41:33;25.93;46.39
71514;DHT22;59335;46.652;21.272;2023-06-04T04:44:37;25.96;46.25
71514;DHT22;59335;46.652;21.272;2023-06-04T04:47:42;25.99;46.22
71514;DHT22;59335;46.652;21.272;2023-06-04T04:50:45;25.97;46.30
71514;DHT22;59335;46.652;21.272;2023-06-04T04:53:48;26.01;46.26
71514;DHT22;59335;46.652;21.272;2023-06-04T04:56:52;26.00;46.24
71514;DHT22;59335;46.652;21.272;2023-06-04T05:00:15;26.03;46.26
71514;DHT22;59335;46.652;21.272;2023-06-04T05:03:20;26.03;46.20
71514;DHT22;59335;46.652;21.272;2023-06-04T05:06:23;26.07;46.09
71514;DHT22;59335;46.652;21.272;2023-06-04T05:09:26;26.12;45.99
71514;DHT22;59335;46.652;21.272;2023-06-04T05:12:30;26.13;45.89
71514;DHT22;59335;46.652;21.272;2023-06-04T05:15:36;26.18;45.79
71514;DHT22;59335;46.652;21.272;2023-06-04T05:18:41;26.18;45.87
71514;DHT22;59335;46.652;21.272;2023-06-04T05:21:50;26.23;45.86
71514;DHT22;59335;46.652;21.272;2023-06-04T05:24:54;26.24;45.93
71514;DHT22;59335;46.652;21.272;2023-06-04T05:27:56;26.30;46.22
71514;DHT22;59335;46.652;21.272;2023-06-04T05:31:00;26.31;46.29
71514;DHT22;59335;46.652;21.272;2023-06-04T05:34:06;26.34;46.22
71514;DHT22;59335;46.652;21.272;2023-06-04T05:37:13;26.36;46.18
71514;DHT22;59335;46.652;21.272;2023-06-04T05:40:20;26.38;46.12
71514;DHT22;59335;46.652;21.272;2023-06-04T05:43:24;26.41;46.10
71514;DHT22;59335;46.652;21.272;2023-06-04T05:46:28;26.44;46.06
71514;DHT22;59335;46.652;21.272;2023-06-04T05:49:30;26.47;46.04
71514;DHT22;59335;46.652;21.272;2023-06-04T05:52:34;26.49;45.97
71514;DHT22;59335;46.652;21.272;2023-06-04T05:55:43;26.52;45.94
71514;DHT22;59335;46.652;21.272;2023-06-04T05:58:51;26.54;45.87
71514;DHT22;59335;46.652;21.272;2023-06-04T06:01:56;26.57;45.79
71514;DHT22;59335;46.652;21.272;2023-06-04T06:05:00;26.59;45.67
71514;DHT22;59335;46.652;21.272;2023-06-04T06:08:03;26.61;45.61
71514;DHT22;59335;46.652;21.272;2023-06-04T06:11:06;26.62;45.64
71514;DHT22;59335;46.652;21.272;2023-06-04T06:14:12;26.64;45.65
71514;DHT22;59335;46.652;21.272;2023-06-04T06:17:15;26.67;45.67
71514;DHT22;59335;46.652;21.272;2023-06-04T06:20:19;26.68;45.64
71514;DHT22;59335;46.652;21.272;2023-06-04T06:23:22;26.69;45.61
71514;DHT22;59335;46.652;21.272;2023-06-04T06:26:27;26.74;45.63
71514;DHT22;59335;46.652;21.272;2023-06-04T06:29:32;26.78;45.60
71514;DHT22;59335;46.652;21.272;2023-06-04T06:32:36;26.78;45.58
71514;DHT22;59335;46.652;21.272;2023-06-04T06:35:39;26.79;45.52
71514;DHT22;59335;46.652;21.272;2023-06-04T06:38:42;26.82;45.54
71514;DHT22;59335;46.652;21.272;2023-06-04T06:41:45;26.82;45.50
71514;DHT22;59335;46.652;21.272;2023-06-04T06:44:53;26.88;45.46
71514;DHT22;59335;46.652;21.272;2023-06-04T06:47:55;26.93;45.44
71514;DHT22;59335;46.652;21.272;2023-06-04T06:50:58;26.98;45.39
71514;DHT22;59335;46.652;21.272;2023-06-04T06:54:00;26.98;45.37
71514;DHT22;59335;46.652;21.272;2023-06-04T06:57:03;27.02;45.32
71514;DHT22;59335;46.652;21.272;2023-06-04T07:00:11;27.07;45.32
71514;DHT22;59335;46.652;21.272;2023-06-04T07:03:14;27.09;45.26
71514;DHT22;59335;46.652;21.272;2023-06-04T07:06:17;27.10;45.27
71514;DHT22;59335;46.652;21.272;2023-06-04T07:09:21;27.12;45.27
71514;DHT22;59335;46.652;21.272;2023-06-04T07:12:24;27.16;45.28
71514;DHT22;59335;46.652;21.272;2023-06-04T07:15:26;27.19;45.25
71514;DHT22;59335;46.652;21.272;2023-06-04T07:18:29;27.23;45.19
71514;DHT22;59335;46.652;21.272;2023-06-04T07:21:32;27.26;45.19
71514;DHT22;59335;46.652;21.272;2023-06-04T07:24:34;27.26;45.17
71514;DHT22;59335;46.652;21.272;2023-06-04T07:27:37;27.27;45.18
71514;DHT22;59335;46.652;21.272;2023-06-04T07:30:40;27.32;45.11
71514;DHT22;59335;46.652;21.272;2023-06-04T07:33:43;27.32;45.19
71514;DHT22;59335;46.652;21.272;2023-06-04T07:36:46;27.30;45.18
71514;DHT22;59335;46.652;21.272;2023-06-04T07:39:49;27.36;45.17
71514;DHT22;59335;46.652;21.272;2023-06-04T07:42:52;27.37;45.20
71514;DHT22;59335;46.652;21.272;2023-06-04T07:45:54;27.36;45.21
71514;DHT22;59335;46.652;21.272;2023-06-04T07:48:57;27.40;45.22
71514;DHT22;59335;46.652;21.272;2023-06-04T07:51:59;27.41;45.22
71514;DHT22;59335;46.652;21.272;2023-06-04T07:55:03;27.40;45.21
71514;DHT22;59335;46.652;21.272;2023-06-04T07:58:05;27.40;45.29
71514;DHT22;59335;46.652;21.272;2023-06-04T08:01:09;27.43;45.28
71514;DHT22;59335;46.652;21.272;2023-06-04T08:04:11;27.40;45.34
71514;DHT22;59335;46.652;21.272;2023-06-04T08:07:14;27.43;45.36
71514;DHT22;59335;46.652;21.272;2023-06-04T08:10:17;27.44;45.41
71514;DHT22;59335;46.652;21.272;2023-06-04T08:13:20;27.40;45.44
71514;DHT22;59335;46.652;21.272;2023-06-04T08:16:23;27.41;45.44
71514;DHT22;59335;46.652;21.272;2023-06-04T08:19:25;27.44;45.46
71514;DHT22;59335;46.652;21.272;2023-06-04T08:22:28;27.43;45.44
71514;DHT22;59335;46.652;21.272;2023-06-04T08:25:33;27.43;45.44
71514;DHT22;59335;46.652;21.272;2023-06-04T08:28:36;27.44;45.48
71514;DHT22;59335;46.652;21.272;2023-06-04T08:31:40;27.43;45.50
71514;DHT22;59335;46.652;21.272;2023-06-04T08:34:43;27.44;45.46
71514;DHT22;59335;46.652;21.272;2023-06-04T08:37:46;27.43;45.51
71514;DHT22;59335;46.652;21.272;2023-06-04T08:40:52;27.41;45.50
71514;DHT22;59335;46.652;21.272;2023-06-04T08:43:56;27.44;45.52
71514;DHT22;59335;46.652;21.272;2023-06-04T08:47:04;27.41;45.57
71514;DHT22;59335;46.652;21.272;2023-06-04T08:50:10;27.43;45.49
71514;DHT22;59335;46.652;21.272;2023-06-04T08:53:15;27.43;45.54
71514;DHT22;59335;46.652;21.272;2023-06-04T08:56:19;27.41;45.53
71514;DHT22;59335;46.652;21.272;2023-06-04T08:59:23;27.44;45.62
71514;DHT22;59335;46.652;21.272;2023-06-04T09:02:27;27.43;45.58
71514;DHT22;59335;46.652;21.272;2023-06-04T09:05:30;27.40;45.68
71514;DHT22;59335;46.652;21.272;2023-06-04T09:08:36;27.40;45.74
71514;DHT22;59335;46.652;21.272;2023-06-04T09:11:58;27.40;45.80
71514;DHT22;59335;46.652;21.272;2023-06-04T09:15:01;27.40;45.77
71514;DHT22;59335;46.652;21.272;2023-06-04T09:18:03;27.36;45.79
71514;DHT22;59335;46.652;21.272;2023-06-04T09:21:08;27.37;45.87
71514;DHT22;59335;46.652;21.272;2023-06-04T09:24:11;27.34;45.92
71514;DHT22;59335;46.652;21.272;2023-06-04T09:27:15;27.37;45.90
71514;DHT22;59335;46.652;21.272;2023-06-04T09:30:18;27.34;45.94
71514;DHT22;59335;46.652;21.272;2023-06-04T09:33:21;27.34;45.95
71514;DHT22;59335;46.652;21.272;2023-06-04T09:36:30;27.33;45.99
71514;DHT22;59335;46.652;21.272;2023-06-04T09:39:32;27.32;46.01
71514;DHT22;59335;46.652;21.272;2023-06-04T09:42:45;27.32;46.08
71514;DHT22;59335;46.652;21.272;2023-06-04T09:45:48;27.32;46.09
71514;DHT22;59335;46.652;21.272;2023-06-04T09:49:03;27.30;46.14
71514;DHT22;59335;46.652;21.272;2023-06-04T09:52:06;27.29;46.19
71514;DHT22;59335;46.652;21.272;2023-06-04T09:55:16;27.30;46.22
71514;DHT22;59335;46.652;21.272;2023-06-04T09:58:25;27.24;46.26
71514;DHT22;59335;46.652;21.272;2023-06-04T10:01:29;27.26;46.23
71514;DHT22;59335;46.652;21.272;2023-06-04T10:04:33;27.26;46.25
71514;DHT22;59335;46.652;21.272;2023-06-04T10:07:37;27.24;46.25
71514;DHT22;59335;46.652;21.272;2023-06-04T10:10:44;27.22;46.23
71514;DHT22;59335;46.652;21.272;2023-06-04T10:14:14;27.20;46.22
71514;DHT22;59335;46.652;21.272;2023-06-04T10:17:23;27.19;46.33
71514;DHT22;59335;46.652;21.272;2023-06-04T10:20:27;27.19;46.27
71514;DHT22;59335;46.652;21.272;2023-06-04T10:23:30;27.19;46.31
71514;DHT22;59335;46.652;21.272;2023-06-04T10:26:33;27.17;46.33
71514;DHT22;59335;46.652;21.272;2023-06-04T10:29:37;27.14;46.39
71514;DHT22;59335;46.652;21.272;2023-06-04T10:32:40;27.14;46.35
71514;DHT22;59335;46.652;21.272;2023-06-04T10:35:44;27.10;46.41
71514;DHT22;59335;46.652;21.272;2023-06-04T10:38:52;27.12;46.47
71514;DHT22;59335;46.652;21.272;2023-06-04T10:42:04;27.13;46.50
71514;DHT22;59335;46.652;21.272;2023-06-04T10:45:08;27.10;46.53
71514;DHT22;59335;46.652;21.272;2023-06-04T10:48:12;27.09;46.56
71514;DHT22;59335;46.652;21.272;2023-06-04T10:51:30;27.10;46.61
71514;DHT22;59335;46.652;21.272;2023-06-04T10:54:33;27.09;46.61
71514;DHT22;59335;46.652;21.272;2023-06-04T10:57:38;27.07;46.65
71514;DHT22;59335;46.652;21.272;2023-06-04T11:00:42;27.07;46.68
71514;DHT22;59335;46.652;21.272;2023-06-04T11:03:45;27.03;46.69
71514;DHT22;59335;46.652;21.272;2023-06-04T11:07:07;27.05;46.67
71514;DHT22;59335;46.652;21.272;2023-06-04T11:10:14;27.03;46.67
71514;DHT22;59335;46.652;21.272;2023-06-04T11:13:25;27.05;46.70
71514;DHT22;59335;46.652;21.272;2023-06-04T11:16:32;27.05;46.71
71514;DHT22;59335;46.652;21.272;2023-06-04T11:19:37;27.05;46.71
71514;DHT22;59335;46.652;21.272;2023-06-04T11:22:40;27.00;46.78
71514;DHT22;59335;46.652;21.272;2023-06-04T11:25:43;27.00;46.76
71514;DHT22;59335;46.652;21.272;2023-06-04T11:28:48;27.06;46.75
71514;DHT22;59335;46.652;21.272;2023-06-04T11:31:51;27.02;46.73
71514;DHT22;59335;46.652;21.272;2023-06-04T11:35:05;27.02;46.75
71514;DHT22;59335;46.652;21.272;2023-06-04T11:38:10;27.02;46.74
71514;DHT22;59335;46.652;21.272;2023-06-04T11:41:14;26.99;46.80
71514;DHT22;59335;46.652;21.272;2023-06-04T11:44:20;26.99;46.79
71514;DHT22;59335;46.652;21.272;2023-06-04T11:47:24;26.99;46.81
71514;DHT22;59335;46.652;21.272;2023-06-04T11:50:28;26.99;46.84
71514;DHT22;59335;46.652;21.272;2023-06-04T11:53:31;27.00;46.80
71514;DHT22;59335;46.652;21.272;2023-06-04T11:56:34;26.98;46.81
71514;DHT22;59335;46.652;21.272;2023-06-04T11:59:38;26.98;46.81
71514;DHT22;59335;46.652;21.272;2023-06-04T12:02:56;26.99;46.83
71514;DHT22;59335;46.652;21.272;2023-06-04T12:05:59;26.96;46.85
71514;DHT22;59335;46.652;21.272;2023-06-04T12:09:22;26.98;46.86
71514;DHT22;59335;46.652;21.272;2023-06-04T12:12:24;26.95;46.90
71514;DHT22;59335;46.652;21.272;2023-06-04T12:15:27;26.96;46.86
71514;DHT22;59335;46.652;21.272;2023-06-04T12:18:30;26.96;46.87
71514;DHT22;59335;46.652;21.272;2023-06-04T12:21:32;26.93;46.89
71514;DHT22;59335;46.652;21.272;2023-06-04T12:24:55;26.96;46.88
71514;DHT22;59335;46.652;21.272;2023-06-04T12:27:59;26.95;46.88
71514;DHT22;59335;46.652;21.272;2023-06-04T12:31:02;26.95;46.94
71514;DHT22;59335;46.652;21.272;2023-06-04T12:34:05;26.93;46.86
71514;DHT22;59335;46.652;21.272;2023-06-04T12:37:08;26.92;46.88
71514;DHT22;59335;46.652;21.272;2023-06-04T12:40:11;26.92;46.93
71514;DHT22;59335;46.652;21.272;2023-06-04T12:43:14;26.92;46.91
71514;DHT22;59335;46.652;21.272;2023-06-04T12:46:17;26.92;46.92
71514;DHT22;59335;46.652;21.272;2023-06-04T12:49:20;26.91;46.89
71514;DHT22;59335;46.652;21.272;2023-06-04T12:52:22;26.91;46.96
71514;DHT22;59335;46.652;21.272;2023-06-04T12:55:25;26.93;46.92
71514;DHT22;59335;46.652;21.272;2023-06-04T12:58:29;26.88;46.97
71514;DHT22;59335;46.652;21.272;2023-06-04T13:01:32;26.91;46.94
71514;DHT22;59335;46.652;21.272;2023-06-04T13:04:35;26.91;46.94
71514;DHT22;59335;46.652;21.272;2023-06-04T13:07:39;26.89;46.97
71514;DHT22;59335;46.652;21.272;2023-06-04T13:10:41;26.91;46.96
71514;DHT22;59335;46.652;21.272;2023-06-04T13:13:44;26.88;46.98
71514;DHT22;59335;46.652;21.272;2023-06-04T13:16:46;26.88;46.97
71514;DHT22;59335;46.652;21.272;2023-06-04T13:19:51;26.86;46.94
71514;DHT22;59335;46.652;21.272;2023-06-04T13:22:54;26.86;46.99
71514;DHT22;59335;46.652;21.272;2023-06-04T13:25:57;26.88;46.96
71514;DHT22;59335;46.652;21.272;2023-06-04T13:29:00;26.86;47.00
71514;DHT22;59335;46.652;21.272;2023-06-04T13:32:02;26.85;47.00
71514;DHT22;59335;46.652;21.272;2023-06-04T13:35:07;26.88;46.98
71514;DHT22;59335;46.652;21.272;2023-06-04T13:38:09;26.86;46.99
71514;DHT22;59335;46.652;21.272;2023-06-04T13:41:12;26.85;46.98
71514;DHT22;59335;46.652;21.272;2023-06-04T13:44:16;26.85;47.01
71514;DHT22;59335;46.652;21.272;2023-06-04T13:47:19;26.84;46.95
71514;DHT22;59335;46.652;21.272;2023-06-04T13:50:23;26.85;47.01
71514;DHT22;59335;46.652;21.272;2023-06-04T13:53:26;26.85;46.99
71514;DHT22;59335;46.652;21.272;2023-06-04T13:56:28;26.85;47.05
71514;DHT22;59335;46.652;21.272;2023-06-04T13:59:31;26.82;47.04
71514;DHT22;59335;46.652;21.272;2023-06-04T14:02:33;26.82;47.04
71514;DHT22;59335;46.652;21.272;2023-06-04T14:05:36;26.81;46.99
71514;DHT22;59335;46.652;21.272;2023-06-04T14:08:38;26.84;47.01
71514;DHT22;59335;46.652;21.272;2023-06-04T14:11:41;26.82;47.02
71514;DHT22;59335;46.652;21.272;2023-06-04T14:14:44;26.81;47.01
71514;DHT22;59335;46.652;21.272;2023-06-04T14:17:47;26.81;47.07
71514;DHT22;59335;46.652;21.272;2023-06-04T14:20:50;26.82;47.06
71514;DHT22;59335;46.652;21.272;2023-06-04T14:23:53;26.81;47.02
71514;DHT22;59335;46.652;21.272;2023-06-04T14:26:56;26.82;47.03
71514;DHT22;59335;46.652;21.272;2023-06-04T14:29:59;26.82;47.02
71514;DHT22;59335;46.652;21.272;2023-06-04T14:33:01;26.81;47.03
71514;DHT22;59335;46.652;21.272;2023-06-04T14:36:04;26.81;47.07
71514;DHT22;59335;46.652;21.272;2023-06-04T14:39:07;26.81;47.03
71514;DHT22;59335;46.652;21.272;2023-06-04T14:42:10;26.79;47.07
71514;DHT22;59335;46.652;21.272;2023-06-04T14:45:13;26.78;47.00
71514;DHT22;59335;46.652;21.272;2023-06-04T14:48:15;26.76;46.99
71514;DHT22;59335;46.652;21.272;2023-06-04T14:51:20;26.79;47.03
71514;DHT22;59335;46.652;21.272;2023-06-04T14:54:25;26.78;47.03
71514;DHT22;59335;46.652;21.272;2023-06-04T14:57:28;26.78;47.01
71514;DHT22;59335;46.652;21.272;2023-06-04T15:00:31;26.76;47.00
71514;DHT22;59335;46.652;21.272;2023-06-04T15:03:33;26.78;47.01
71514;DHT22;59335;46.652;21.272;2023-06-04T15:06:36;26.76;46.94
71514;DHT22;59335;46.652;21.272;2023-06-04T15:09:39;26.76;46.98
71514;DHT22;59335;46.652;21.272;2023-06-04T15:12:42;26.75;46.99
71514;DHT22;59335;46.652;21.272;2023-06-04T15:15:45;26.74;46.98
71514;DHT22;59335;46.652;21.272;2023-06-04T15:18:48;26.76;47.07
71514;DHT22;59335;46.652;21.272;2023-06-04T15:21:51;26.75;47.03
71514;DHT22;59335;46.652;21.272;2023-06-04T15:24:54;26.76;47.04
71514;DHT22;59335;46.652;21.272;2023-06-04T15:27:56;26.76;46.95
71514;DHT22;59335;46.652;21.272;2023-06-04T15:30:59;26.74;46.96
71514;DHT22;59335;46.652;21.272;2023-06-04T15:34:02;26.75;46.95
71514;DHT22;59335;46.652;21.272;2023-06-04T15:37:04;26.74;47.04
71514;DHT22;59335;46.652;21.272;2023-06-04T15:40:07;26.72;46.90
71514;DHT22;59335;46.652;21.272;2023-06-04T15:43:10;26.74;46.89
71514;DHT22;59335;46.652;21.272;2023-06-04T15:46:13;26.72;46.77
71514;DHT22;59335;46.652;21.272;2023-06-04T15:49:15;26.72;46.75
71514;DHT22;59335;46.652;21.272;2023-06-04T15:52:19;26.74;46.75
71514;DHT22;59335;46.652;21.272;2023-06-04T15:55:22;26.71;46.69
71514;DHT22;59335;46.652;21.272;2023-06-04T15:58:24;26.72;46.73
71514;DHT22;59335;46.652;21.272;2023-06-04T16:01:30;26.74;46.71
71514;DHT22;59335;46.652;21.272;2023-06-04T16:04:34;26.71;46.71
71514;DHT22;59335;46.652;21.272;2023-06-04T16:07:38;26.72;46.78
71514;DHT22;59335;46.652;21.272;2023-06-04T16:10:42;26.74;46.72
71514;DHT22;59335;46.652;21.272;2023-06-04T16:13:47;26.71;46.78
71514;DHT22;59335;46.652;21.272;2023-06-04T16:16:49;26.71;46.70
71514;DHT22;59335;46.652;21.272;2023-06-04T16:19:52;26.72;46.69
71514;DHT22;59335;46.652;21.272;2023-06-04T16:22:55;26.69;46.71
71514;DHT22;59335;46.652;21.272;2023-06-04T16:25:57;26.69;46.71
71514;DHT22;59335;46.652;21.272;2023-06-04T16:29:00;26.71;46.68
71514;DHT22;59335;46.652;21.272;2023-06-04T16:32:03;26.69;46.64
71514;DHT22;59335;46.652;21.272;2023-06-04T16:35:06;26.69;46.71
71514;DHT22;59335;46.652;21.272;2023-06-04T16:38:11;26.68;46.72
71514;DHT22;59335;46.652;21.272;2023-06-04T16:41:14;26.71;46.71
71514;DHT22;59335;46.652;21.272;2023-06-04T16:44:17;26.69;46.76
71514;DHT22;59335;46.652;21.272;2023-06-04T16:47:19;26.67;46.79
71514;DHT22;59335;46.652;21.272;2023-06-04T16:50:22;26.69;46.76
71514;DHT22;59335;46.652;21.272;2023-06-04T16:53:25;26.71;46.76
71514;DHT22;59335;46.652;21.272;2023-06-04T16:56:27;26.68;46.69
71514;DHT22;59335;46.652;21.272;2023-06-04T16:59:30;26.67;46.64
71514;DHT22;59335;46.652;21.272;2023-06-04T17:02:34;26.69;46.57
71514;DHT22;59335;46.652;21.272;2023-06-04T17:05:37;26.67;46.61
71514;DHT22;59335;46.652;21.272;2023-06-04T17:08:40;26.69;46.58
71514;DHT22;59335;46.652;21.272;2023-06-04T17:11:43;26.68;46.55
71514;DHT22;59335;46.652;21.272;2023-06-04T17:14:46;26.67;46.49
71514;DHT22;59335;46.652;21.272;2023-06-04T17:17:49;26.65;46.45
71514;DHT22;59335;46.652;21.272;2023-06-04T17:20:52;26.65;46.48
71514;DHT22;59335;46.652;21.272;2023-06-04T17:23:55;26.65;46.48
71514;DHT22;59335;46.652;21.272;2023-06-04T17:27:01;26.68;46.47
71514;DHT22;59335;46.652;21.272;2023-06-04T17:30:04;26.65;46.54
71514;DHT22;59335;46.652;21.272;2023-06-04T17:33:08;26.62;46.52
71514;DHT22;59335;46.652;21.272;2023-06-04T17:36:11;26.65;46.49
71514;DHT22;59335;46.652;21.272;2023-06-04T17:39:14;26.65;46.46
71514;DHT22;59335;46.652;21.272;2023-06-04T17:42:18;26.67;46.56
71514;DHT22;59335;46.652;21.272;2023-06-04T17:45:21;26.62;46.54
71514;DHT22;59335;46.652;21.272;2023-06-04T17:48:24;26.64;46.54
71514;DHT22;59335;46.652;21.272;2023-06-04T17:51:27;26.61;46.48
71514;DHT22;59335;46.652;21.272;2023-06-04T17:54:31;26.61;46.48
71514;DHT22;59335;46.652;21.272;2023-06-04T17:57:35;26.59;46.54
71514;DHT22;59335;46.652;21.272;2023-06-04T18:00:38;26.59;46.59
71514;DHT22;59335;46.652;21.272;2023-06-04T18:03:42;26.61;46.56
71514;DHT22;59335;46.652;21.272;2023-06-04T18:06:46;26.61;46.59
71514;DHT22;59335;46.652;21.272;2023-06-04T18:09:49;26.57;46.56
71514;DHT22;59335;46.652;21.272;2023-06-04T18:12:53;26.58;46.63
71514;DHT22;59335;46.652;21.272;2023-06-04T18:15:56;26.58;46.65
71514;DHT22;59335;46.652;21.272;2023-06-04T18:19:01;26.59;46.69
71514;DHT22;59335;46.652;21.272;2023-06-04T18:22:04;26.58;46.68
71514;DHT22;59335;46.652;21.272;2023-06-04T18:25:11;26.59;46.69
71514;DHT22;59335;46.652;21.272;2023-06-04T18:28:15;26.57;46.74
71514;DHT22;59335;46.652;21.272;2023-06-04T18:31:19;26.58;46.69
71514;DHT22;59335;46.652;21.272;2023-06-04T18:34:23;26.54;46.82
71514;DHT22;59335;46.652;21.272;2023-06-04T18:37:27;26.55;46.73
71514;DHT22;59335;46.652;21.272;2023-06-04T18:40:30;26.55;46.79
71514;DHT22;59335;46.652;21.272;2023-06-04T18:43:34;26.55;46.77
71514;DHT22;59335;46.652;21.272;2023-06-04T18:46:37;26.57;46.79
71514;DHT22;59335;46.652;21.272;2023-06-04T18:49:41;26.52;46.79
71514;DHT22;59335;46.652;21.272;2023-06-04T18:52:45;26.54;46.84
71514;DHT22;59335;46.652;21.272;2023-06-04T18:55:48;26.52;46.87
71514;DHT22;59335;46.652;21.272;2023-06-04T18:58:52;26.52;46.88
71514;DHT22;59335;46.652;21.272;2023-06-04T19:01:57;26.49;46.92
71514;DHT22;59335;46.652;21.272;2023-06-04T19:05:01;26.55;46.80